Time;durP1;ratioP1;P1;durP2;ratioP2;P2;SDS_P1;SDS_P2;PMS_P1;PMS_P2;Temp;Humidity;BMP_temperature;BMP_pressure;BME280_temperature;BME280_humidity;BME280_pressure;Samples;Min_cycle;Max_cycle;Signal;HPM_P1;HPM_P2
2021/10/06 00:01:14;;;;;;;0.97;0.90;;;10.30;99.90;;;;;;5099134;28;20179;-82
2021/10/06 00:03:40;;;;;;;0.90;0.90;;;10.30;99.90;;;;;;5099418;28;20200;-81
2021/10/06 00:06:05;;;;;;;5.10;0.77;;;10.30;99.90;;;;;;5100523;28;20529;-82
2021/10/06 00:08:31;;;;;;;1.53;0.93;;;10.20;99.90;;;;;;5098715;28;20203;-82
2021/10/06 00:10:57;;;;;;;2.10;1.00;;;10.20;99.90;;;;;;5099193;28;20286;-82
2021/10/06 00:13:23;;;;;;;1.70;0.77;;;10.20;99.90;;;;;;5099439;28;20638;-82
2021/10/06 00:15:49;;;;;;;1.40;0.87;;;10.20;99.90;;;;;;5100008;28;20188;-82
2021/10/06 00:18:15;;;;;;;1.47;0.93;;;10.20;99.90;;;;;;5099228;28;20199;-81
2021/10/06 00:20:41;;;;;;;3.80;1.00;;;10.10;99.90;;;;;;5099175;28;20202;-82
2021/10/06 00:23:08;;;;;;;1.03;0.83;;;10.10;99.90;;;;;;5099503;28;20208;-82
2021/10/06 00:25:34;;;;;;;1.23;1.00;;;10.10;99.90;;;;;;5100736;28;20226;-82
2021/10/06 00:28:00;;;;;;;1.90;0.90;;;10.00;99.90;;;;;;5099879;28;20192;-82
2021/10/06 00:30:25;;;;;;;0.90;0.90;;;10.00;99.90;;;;;;5100657;28;20168;-82
2021/10/06 00:32:51;;;;;;;0.93;0.90;;;10.00;99.90;;;;;;5098982;28;20176;-82
2021/10/06 00:35:17;;;;;;;1.93;1.20;;;9.90;99.90;;;;;;5099616;28;20172;-82
2021/10/06 00:37:42;;;;;;;1.57;0.90;;;9.90;99.90;;;;;;5099202;28;20192;-81
2021/10/06 00:40:09;;;;;;;2.00;0.90;;;9.90;99.90;;;;;;5099607;28;20185;-82
2021/10/06 00:42:37;;;;;;;2.57;1.03;;;9.90;99.90;;;;;;5098638;28;20565;-82
2021/10/06 00:45:03;;;;;;;1.37;1.00;;;9.80;99.90;;;;;;5099815;28;20660;-82
2021/10/06 00:47:29;;;;;;;6.10;1.00;;;9.80;99.90;;;;;;5100522;28;20207;-82
2021/10/06 00:49:54;;;;;;;3.17;0.97;;;9.80;99.90;;;;;;5104137;28;20176;-82
2021/10/06 00:52:20;;;;;;;2.93;1.00;;;9.80;99.90;;;;;;5105305;28;20653;-82
2021/10/06 00:54:46;;;;;;;2.03;1.27;;;9.80;99.90;;;;;;5103286;28;20184;-82
2021/10/06 00:57:11;;;;;;;4.40;1.00;;;9.80;99.90;;;;;;5102290;28;20200;-81
2021/10/06 00:59:37;;;;;;;2.83;1.00;;;9.70;99.90;;;;;;5101596;28;20208;-81
2021/10/06 01:02:04;;;;;;;2.17;1.40;;;9.70;99.90;;;;;;5102423;28;20204;-82
2021/10/06 01:04:30;;;;;;;1.97;1.00;;;9.70;99.90;;;;;;5102965;28;20220;-82
2021/10/06 01:06:56;;;;;;;2.73;1.43;;;9.70;99.90;;;;;;5102750;28;20245;-82
2021/10/06 01:09:27;;;;;;;2.03;1.00;;;9.70;99.90;;;;;;5102353;28;20591;-82
2021/10/06 01:11:54;;;;;;;3.70;1.20;;;9.70;99.90;;;;;;5104204;28;20606;-82
2021/10/06 01:14:22;;;;;;;2.00;1.10;;;9.70;99.90;;;;;;5103152;28;20198;-82
2021/10/06 01:16:48;;;;;;;1.37;1.03;;;9.70;99.90;;;;;;5102333;28;20297;-82
2021/10/06 01:19:19;;;;;;;2.43;1.17;;;9.70;99.90;;;;;;5102361;28;20196;-82
2021/10/06 01:21:45;;;;;;;2.23;0.90;;;9.70;99.90;;;;;;5103770;28;20181;-81
2021/10/06 01:24:11;;;;;;;3.20;1.30;;;9.70;99.90;;;;;;5104219;28;20191;-81
2021/10/06 01:26:36;;;;;;;4.67;1.37;;;9.70;99.90;;;;;;5105754;28;20176;-82
2021/10/06 01:29:02;;;;;;;4.90;1.00;;;9.70;99.90;;;;;;5103070;28;20188;-81
2021/10/06 01:31:28;;;;;;;4.93;1.33;;;9.70;99.90;;;;;;5102153;28;20176;-82
2021/10/06 01:33:54;;;;;;;2.97;1.03;;;9.70;99.90;;;;;;5103466;28;20180;-82
2021/10/06 01:36:20;;;;;;;1.20;1.00;;;9.60;99.90;;;;;;5103625;28;20630;-82
2021/10/06 01:38:46;;;;;;;2.43;1.20;;;9.50;99.90;;;;;;5103035;28;20204;-82
2021/10/06 01:41:12;;;;;;;3.30;1.10;;;9.50;99.90;;;;;;5102669;28;20180;-82
2021/10/06 01:43:38;;;;;;;3.07;1.43;;;9.50;99.90;;;;;;5102844;28;20300;-82
2021/10/06 01:46:04;;;;;;;3.87;0.90;;;9.50;99.90;;;;;;5103054;28;20176;-82
2021/10/06 01:48:29;;;;;;;6.03;1.13;;;9.50;99.90;;;;;;5102690;28;20194;-82
2021/10/06 01:50:55;;;;;;;2.47;1.10;;;9.40;99.90;;;;;;5103944;28;20699;-82
2021/10/06 01:53:21;;;;;;;2.73;0.90;;;9.50;99.90;;;;;;5102623;28;20177;-82
2021/10/06 01:55:46;;;;;;;5.63;1.03;;;9.50;99.90;;;;;;5104388;28;20667;-83
2021/10/06 01:58:18;;;;;;;2.77;1.30;;;9.50;99.90;;;;;;5102776;28;20261;-82
2021/10/06 02:00:47;;;;;;;2.37;1.10;;;9.50;99.90;;;;;;5101450;28;20176;-82
2021/10/06 02:03:13;;;;;;;2.30;1.27;;;9.50;99.90;;;;;;5100875;28;20207;-82
2021/10/06 02:05:38;;;;;;;2.80;0.90;;;9.50;99.90;;;;;;5101599;28;20178;-82
2021/10/06 02:08:05;;;;;;;3.83;1.07;;;9.50;99.90;;;;;;5099510;28;20730;-82
2021/10/06 02:10:31;;;;;;;3.30;1.17;;;9.50;99.90;;;;;;5098985;28;20176;-82
2021/10/06 02:12:58;;;;;;;1.70;0.90;;;9.60;99.90;;;;;;5098780;28;20180;-82
2021/10/06 02:15:24;;;;;;;3.33;1.17;;;9.50;99.90;;;;;;5096983;28;20600;-83
2021/10/06 02:17:50;;;;;;;3.67;1.10;;;9.50;99.90;;;;;;5097450;28;20195;-82
2021/10/06 02:20:16;;;;;;;5.00;1.47;;;9.50;99.90;;;;;;5096167;28;20178;-83
2021/10/06 02:22:42;;;;;;;2.57;1.13;;;9.40;99.90;;;;;;5103646;28;20325;-82
2021/10/06 02:25:09;;;;;;;4.57;1.30;;;9.40;99.90;;;;;;5104765;28;20186;-83
2021/10/06 02:27:35;;;;;;;2.97;1.07;;;9.40;99.90;;;;;;5104725;28;20172;-83
2021/10/06 02:30:00;;;;;;;7.13;1.40;;;9.40;99.90;;;;;;5104159;28;20236;-83
2021/10/06 02:32:26;;;;;;;1.63;0.90;;;9.30;99.90;;;;;;5102651;28;20211;-83
2021/10/06 02:34:52;;;;;;;3.27;1.10;;;9.30;99.90;;;;;;5103167;28;20629;-83
2021/10/06 02:37:17;;;;;;;2.23;1.10;;;9.20;99.90;;;;;;5103670;28;20211;-83
2021/10/06 02:39:43;;;;;;;2.87;1.10;;;9.20;99.90;;;;;;5103459;28;20217;-83
2021/10/06 02:42:09;;;;;;;3.77;1.10;;;9.20;99.90;;;;;;5101768;28;20244;-83
2021/10/06 02:44:34;;;;;;;1.87;0.93;;;9.10;99.90;;;;;;5102654;28;20259;-83
2021/10/06 02:47:02;;;;;;;2.03;1.13;;;9.20;99.90;;;;;;5103199;28;20212;-83
2021/10/06 02:49:29;;;;;;;6.70;1.17;;;9.20;99.90;;;;;;5102236;28;20196;-83
2021/10/06 02:51:54;;;;;;;2.90;1.10;;;9.10;99.90;;;;;;5102125;28;20176;-82
2021/10/06 02:54:20;;;;;;;3.27;1.20;;;9.10;99.90;;;;;;5102650;28;20306;-83
2021/10/06 02:56:46;;;;;;;3.07;1.30;;;9.10;99.90;;;;;;5102358;28;20177;-83
2021/10/06 02:59:11;;;;;;;4.20;1.43;;;9.10;99.90;;;;;;5102599;28;20562;-83
2021/10/06 03:01:37;;;;;;;1.50;1.17;;;9.10;99.90;;;;;;5101300;28;20184;-84
2021/10/06 03:04:03;;;;;;;1.83;1.10;;;9.10;99.90;;;;;;5101445;28;20591;-83
2021/10/06 03:06:28;;;;;;;5.23;1.37;;;9.10;99.90;;;;;;5100909;28;20203;-83
2021/10/06 03:08:55;;;;;;;3.20;1.10;;;9.10;99.90;;;;;;5102708;28;20194;-83
2021/10/06 03:11:21;;;;;;;2.67;1.07;;;9.10;99.90;;;;;;5101190;28;20220;-83
2021/10/06 03:13:47;;;;;;;1.10;0.83;;;9.00;99.90;;;;;;5100235;28;20179;-82
2021/10/06 03:16:12;;;;;;;1.33;0.83;;;9.00;99.90;;;;;;5100826;28;20205;-82
2021/10/06 03:18:38;;;;;;;2.93;1.00;;;9.00;99.90;;;;;;5100290;28;20211;-82
2021/10/06 03:21:04;;;;;;;1.40;0.90;;;8.90;99.90;;;;;;5100713;28;20211;-82
2021/10/06 03:23:29;;;;;;;3.43;1.20;;;8.90;99.90;;;;;;5101136;28;20250;-83
2021/10/06 03:25:55;;;;;;;2.27;1.30;;;8.90;99.90;;;;;;5102790;28;20312;-83
2021/10/06 03:28:21;;;;;;;2.33;1.10;;;8.90;99.90;;;;;;5103643;28;20706;-83
2021/10/06 03:30:46;;;;;;;1.33;0.80;;;8.90;99.90;;;;;;5105348;28;20179;-83
2021/10/06 03:33:12;;;;;;;2.07;0.80;;;8.80;99.90;;;;;;5103353;28;20237;-82
2021/10/06 03:35:38;;;;;;;1.30;0.90;;;8.80;99.90;;;;;;5103353;28;20198;-83
2021/10/06 03:38:04;;;;;;;1.20;0.87;;;8.80;99.90;;;;;;5102013;28;20221;-83
2021/10/06 03:40:29;;;;;;;2.03;1.10;;;8.70;99.90;;;;;;5100804;28;20187;-82
2021/10/06 03:42:55;;;;;;;1.17;0.77;;;8.70;99.90;;;;;;5102266;28;20208;-83
2021/10/06 03:45:21;;;;;;;1.33;1.00;;;8.70;99.90;;;;;;5102799;28;20232;-83
2021/10/06 03:47:47;;;;;;;2.07;0.93;;;8.70;99.90;;;;;;5104682;28;20201;-83
2021/10/06 03:50:14;;;;;;;1.70;1.27;;;8.70;99.90;;;;;;5105742;28;20197;-82
2021/10/06 03:52:40;;;;;;;1.50;0.90;;;8.70;99.90;;;;;;5105376;28;20199;-83
2021/10/06 03:55:08;;;;;;;3.97;1.10;;;8.60;99.90;;;;;;5103426;28;20254;-83
2021/10/06 03:57:33;;;;;;;1.60;1.00;;;8.60;99.90;;;;;;5111066;28;20182;-82
2021/10/06 03:59:59;;;;;;;1.60;1.17;;;8.60;99.90;;;;;;5113664;28;20179;-82
2021/10/06 04:02:25;;;;;;;1.63;1.17;;;8.60;99.90;;;;;;5112335;28;20237;-82
2021/10/06 04:04:51;;;;;;;2.10;0.93;;;8.60;99.90;;;;;;5105847;28;20168;-82
2021/10/06 04:07:16;;;;;;;1.83;1.00;;;8.60;99.90;;;;;;5100556;28;20198;-83
2021/10/06 04:09:42;;;;;;;2.40;0.90;;;8.50;99.90;;;;;;5100431;28;20687;-82
2021/10/06 04:12:08;;;;;;;6.37;1.13;;;8.50;99.90;;;;;;5099722;28;20358;-82
2021/10/06 04:14:34;;;;;;;2.67;1.03;;;8.50;99.90;;;;;;5099971;28;20180;-82
2021/10/06 04:16:59;;;;;;;2.97;1.30;;;8.50;99.90;;;;;;5098818;28;20222;-82
2021/10/06 04:19:25;;;;;;;1.27;0.77;;;8.50;99.90;;;;;;5099138;28;20198;-82
2021/10/06 04:21:51;;;;;;;1.50;0.90;;;8.50;99.90;;;;;;5100776;28;20179;-82
2021/10/06 04:24:16;;;;;;;1.67;0.80;;;8.50;99.90;;;;;;5102339;28;20266;-82
2021/10/06 04:26:42;;;;;;;2.43;1.10;;;8.50;99.90;;;;;;5103490;28;20186;-83
2021/10/06 04:29:08;;;;;;;1.80;1.20;;;8.50;99.90;;;;;;5104065;28;20194;-82
2021/10/06 04:31:33;;;;;;;1.23;0.73;;;8.50;99.90;;;;;;5102304;28;20180;-82
2021/10/06 04:33:59;;;;;;;3.60;1.30;;;8.50;99.90;;;;;;5103152;28;20178;-82
2021/10/06 04:36:25;;;;;;;2.67;0.87;;;8.50;99.90;;;;;;5104228;28;20173;-82
2021/10/06 04:38:51;;;;;;;1.60;1.20;;;8.50;99.90;;;;;;5102152;28;20207;-82
2021/10/06 04:41:16;;;;;;;4.23;1.20;;;8.50;99.90;;;;;;5103576;28;20179;-82
2021/10/06 04:43:42;;;;;;;1.67;1.00;;;8.50;99.90;;;;;;5101623;28;20231;-82
2021/10/06 04:46:08;;;;;;;4.63;3.13;;;8.50;99.90;;;;;;5101597;28;20182;-82
2021/10/06 04:48:33;;;;;;;1.27;0.97;;;8.50;99.90;;;;;;5101322;28;20195;-82
2021/10/06 04:50:59;;;;;;;1.17;0.93;;;8.50;99.90;;;;;;5100676;28;20179;-82
2021/10/06 04:53:25;;;;;;;1.30;1.20;;;8.50;99.90;;;;;;5100358;28;20638;-82
2021/10/06 04:55:50;;;;;;;2.30;1.10;;;8.50;99.90;;;;;;5102356;28;20535;-82
2021/10/06 04:58:16;;;;;;;5.80;1.20;;;8.50;99.90;;;;;;5101160;28;20195;-82
2021/10/06 05:00:42;;;;;;;4.53;1.10;;;8.50;99.90;;;;;;5101419;28;20657;-82
2021/10/06 05:03:12;;;;;;;3.13;1.23;;;8.50;99.90;;;;;;5101361;28;20220;-82
2021/10/06 05:05:40;;;;;;;1.20;0.90;;;8.50;99.90;;;;;;5099374;28;20178;-81
2021/10/06 05:08:07;;;;;;;6.60;1.57;;;8.50;99.90;;;;;;5099592;28;20215;-81
2021/10/06 05:10:33;;;;;;;1.97;1.17;;;8.50;99.90;;;;;;5100521;28;20200;-81
2021/10/06 05:12:59;;;;;;;10.47;6.03;;;8.50;99.90;;;;;;5099726;28;20208;-81
2021/10/06 05:15:25;;;;;;;5.20;2.60;;;8.50;99.90;;;;;;5099228;28;20255;-81
2021/10/06 05:17:51;;;;;;;6.53;3.10;;;8.50;99.90;;;;;;5098180;28;20206;-81
2021/10/06 05:20:16;;;;;;;4.10;1.40;;;8.50;99.90;;;;;;5099336;28;20184;-81
2021/10/06 05:22:42;;;;;;;1.37;1.03;;;8.50;99.90;;;;;;5097500;28;20206;-81
2021/10/06 05:25:09;;;;;;;1.37;1.27;;;8.50;99.90;;;;;;5098876;28;20169;-81
2021/10/06 08:04:27;;;;;;;2.77;1.50;;;10.20;99.90;;;;;;5138431;27;20300;-80
2021/10/06 08:06:53;;;;;;;2.47;1.70;;;10.30;99.90;;;;;;5119846;28;20602;-80
2021/10/06 08:09:19;;;;;;;4.77;1.80;;;10.30;99.90;;;;;;5132451;28;20602;-80
2021/10/06 08:11:45;;;;;;;2.87;1.93;;;10.20;99.90;;;;;;5135809;28;20262;-80
2021/10/06 08:14:11;;;;;;;3.30;2.17;;;10.30;99.90;;;;;;5136514;28;20208;-80
2021/10/06 08:16:36;;;;;;;1.83;1.50;;;10.50;99.90;;;;;;5137367;27;20222;-80
2021/10/06 08:19:02;;;;;;;2.37;1.60;;;10.80;99.90;;;;;;5136566;28;20572;-80
2021/10/06 08:21:28;;;;;;;2.10;1.50;;;11.00;99.90;;;;;;5136658;27;20178;-81
2021/10/06 08:23:53;;;;;;;2.30;1.10;;;10.80;99.90;;;;;;5136762;27;20200;-80
2021/10/06 08:26:19;;;;;;;2.40;1.57;;;10.50;99.90;;;;;;5137154;27;20163;-80
2021/10/06 08:28:45;;;;;;;3.47;1.47;;;10.40;99.90;;;;;;5136517;28;20195;-80
2021/10/06 08:31:10;;;;;;;2.33;1.50;;;10.40;99.90;;;;;;5137237;27;20175;-80
2021/10/06 08:33:36;;;;;;;1.77;1.03;;;10.60;99.90;;;;;;5136718;27;20171;-80
2021/10/06 08:36:02;;;;;;;2.70;1.10;;;10.90;99.90;;;;;;5135795;28;20210;-81
2021/10/06 08:38:28;;;;;;;1.93;1.10;;;11.00;99.90;;;;;;5136645;28;20198;-80
2021/10/06 08:40:53;;;;;;;3.20;1.53;;;11.00;99.90;;;;;;5135421;27;20206;-80
2021/10/06 08:43:19;;;;;;;2.67;1.23;;;11.10;99.90;;;;;;5133455;28;20206;-81
2021/10/06 08:45:45;;;;;;;1.47;0.80;;;11.00;99.90;;;;;;5135419;28;20179;-81
2021/10/06 08:48:12;;;;;;;3.13;1.20;;;10.90;99.90;;;;;;5138535;27;20282;-80
2021/10/06 08:50:39;;;;;;;2.57;1.20;;;10.80;99.90;;;;;;5139071;27;20174;-80
2021/10/06 08:53:05;;;;;;;1.37;0.83;;;10.70;99.90;;;;;;5136636;28;20202;-80
2021/10/06 08:55:30;;;;;;;3.63;1.60;;;10.70;99.90;;;;;;5133835;28;20208;-80
2021/10/06 08:57:58;;;;;;;4.50;1.60;;;10.60;99.90;;;;;;5135307;28;20203;-80
2021/10/06 09:00:24;;;;;;;3.23;1.27;;;10.60;99.90;;;;;;5137969;27;20179;-80
2021/10/06 09:02:50;;;;;;;2.30;1.17;;;10.60;99.90;;;;;;5138022;27;20206;-80
2021/10/06 09:05:22;;;;;;;1.87;0.90;;;10.60;99.90;;;;;;5136420;28;20178;-80
2021/10/06 09:08:03;;;;;;;3.77;1.13;;;10.60;99.90;;;;;;5136417;28;20201;-81
2021/10/06 09:10:31;;;;;;;3.27;1.63;;;10.60;99.90;;;;;;5136898;28;20266;-80
2021/10/06 09:13:07;;;;;;;3.33;1.03;;;10.70;99.90;;;;;;5137776;27;20175;-80
2021/10/06 09:15:50;;;;;;;2.83;1.60;;;10.90;99.90;;;;;;5124573;28;20216;-80
2021/10/06 09:18:21;;;;;;;2.33;1.00;;;10.90;99.90;;;;;;5124086;28;20199;-80
2021/10/06 09:20:47;;;;;;;3.10;1.73;;;11.00;99.90;;;;;;5123449;27;20164;-80
2021/10/06 09:23:16;;;;;;;6.87;4.07;;;11.00;99.90;;;;;;5123337;28;20758;-80
2021/10/06 09:26:03;;;;;;;2.47;1.50;;;11.00;99.90;;;;;;5123682;28;20172;-80
2021/10/06 09:28:28;;;;;;;1.57;1.03;;;11.10;99.90;;;;;;5123586;27;20207;-80
2021/10/06 09:31:21;;;;;;;2.67;1.40;;;10.90;99.90;;;;;;5121875;28;20183;-80
2021/10/06 09:33:51;;;;;;;1.77;0.90;;;10.80;99.90;;;;;;5118916;28;20194;-80
2021/10/06 09:36:26;;;;;;;4.37;1.87;;;10.70;99.90;;;;;;5123410;28;20198;-80
2021/10/06 09:39:01;;;;;;;3.50;2.00;;;10.70;99.90;;;;;;5122202;28;20236;-80
2021/10/06 09:41:32;;;;;;;3.73;1.90;;;10.80;99.90;;;;;;5122074;28;20193;-80
2021/10/06 09:44:09;;;;;;;11.50;8.17;;;10.70;99.90;;;;;;5121255;28;20207;-80
2021/10/06 09:46:48;;;;;;;3.93;2.03;;;10.80;99.90;;;;;;5122272;28;20168;-80
2021/10/06 09:49:24;;;;;;;5.47;3.23;;;10.80;99.90;;;;;;5123252;28;20698;-80
2021/10/06 09:51:52;;;;;;;7.70;3.10;;;10.90;99.90;;;;;;5121783;28;20680;-80
2021/10/06 09:54:19;;;;;;;8.17;5.40;;;11.00;99.90;;;;;;5122252;28;20194;-80
2021/10/06 09:56:47;;;;;;;4.17;2.33;;;11.20;99.90;;;;;;5121527;28;20179;-80
2021/10/06 09:59:14;;;;;;;4.93;1.70;;;11.30;99.90;;;;;;5121557;28;20294;-80
2021/10/06 10:01:45;;;;;;;6.03;3.87;;;11.40;99.90;;;;;;5121631;28;20270;-80
2021/10/06 10:04:12;;;;;;;2.47;1.40;;;11.50;99.90;;;;;;5122733;28;20664;-80
2021/10/06 10:06:39;;;;;;;2.17;1.50;;;11.40;99.90;;;;;;5121392;28;20658;-80
2021/10/06 10:09:08;;;;;;;3.33;2.03;;;11.50;99.90;;;;;;5123649;28;20278;-80
2021/10/06 10:11:35;;;;;;;3.60;1.73;;;11.70;99.90;;;;;;5121383;28;20270;-80
2021/10/06 10:14:05;;;;;;;4.90;1.83;;;11.90;99.90;;;;;;5121890;28;20253;-79
2021/10/06 10:16:33;;;;;;;3.77;1.90;;;12.00;99.90;;;;;;5122167;28;20187;-80
2021/10/06 10:19:07;;;;;;;2.83;1.57;;;11.90;99.90;;;;;;5123692;28;20200;-80
2021/10/06 10:21:34;;;;;;;5.90;1.70;;;11.70;99.90;;;;;;5122754;28;20175;-80
2021/10/06 10:24:11;;;;;;;7.53;1.67;;;11.50;99.90;;;;;;5122727;28;20657;-80
2021/10/06 10:26:37;;;;;;;5.20;1.67;;;11.40;99.90;;;;;;5120941;28;20175;-80
2021/10/06 10:29:41;;;;;;;2.80;0.90;;;11.40;99.90;;;;;;5122059;28;20203;-80
2021/10/06 10:32:16;;;;;;;3.33;1.10;;;11.50;99.90;;;;;;5120318;28;20603;-80
2021/10/06 10:35:05;;;;;;;2.00;1.03;;;11.60;99.90;;;;;;5122465;28;20253;-80
2021/10/06 10:37:46;;;;;;;5.47;1.20;;;11.80;99.90;;;;;;5121089;28;20171;-80
2021/10/06 10:40:32;;;;;;;3.83;1.23;;;12.30;99.90;;;;;;5121933;28;20176;-80
2021/10/06 10:43:11;;;;;;;3.37;1.17;;;13.20;99.90;;;;;;5122366;28;20205;-80
2021/10/06 10:45:47;;;;;;;3.97;2.03;;;14.30;99.90;;;;;;5121726;28;20168;-80
2021/10/06 10:48:14;;;;;;;4.23;2.00;;;15.10;99.90;;;;;;5122003;28;20200;-80
2021/10/06 10:50:43;;;;;;;3.17;1.40;;;15.40;99.90;;;;;;5121569;28;20180;-80
2021/10/06 10:53:17;;;;;;;7.67;2.43;;;15.50;99.90;;;;;;5124020;28;20177;-81
2021/10/06 10:55:47;;;;;;;2.10;1.00;;;15.60;99.90;;;;;;5123004;28;20161;-81
2021/10/06 10:58:29;;;;;;;4.40;1.90;;;15.80;99.90;;;;;;5123428;28;20277;-80
2021/10/06 11:00:56;;;;;;;5.47;1.80;;;16.00;99.90;;;;;;5121285;28;20536;-81
2021/10/06 11:03:22;;;;;;;2.53;1.10;;;15.60;99.90;;;;;;5121547;28;20287;-80
2021/10/06 11:05:49;;;;;;;2.40;1.07;;;15.20;99.90;;;;;;5121328;28;20225;-80
2021/10/06 11:08:28;;;;;;;3.40;1.67;;;14.80;99.90;;;;;;5120678;28;20257;-80
2021/10/06 11:11:09;;;;;;;4.00;1.40;;;14.40;99.90;;;;;;5120559;28;20185;-80
2021/10/06 11:13:37;;;;;;;2.20;1.27;;;13.90;99.90;;;;;;5120919;28;20183;-79
2021/10/06 11:16:04;;;;;;;3.00;1.20;;;13.60;99.90;;;;;;5121544;28;20166;-80
2021/10/06 11:18:46;;;;;;;2.60;1.20;;;13.40;99.90;;;;;;5120675;28;20189;-80
2021/10/06 11:21:28;;;;;;;5.17;1.33;;;13.20;99.90;;;;;;5119012;28;20199;-80
2021/10/06 11:23:54;;;;;;;5.27;1.40;;;13.20;99.90;;;;;;5120620;28;20541;-80
2021/10/06 11:26:26;;;;;;;3.90;1.30;;;13.40;99.90;;;;;;5120261;28;20170;-80
2021/10/06 11:28:54;;;;;;;2.47;0.80;;;13.90;99.90;;;;;;5120665;28;20219;-80
2021/10/06 11:31:25;;;;;;;1.83;0.83;;;14.50;99.90;;;;;;5119682;28;20161;-80
2021/10/06 11:33:51;;;;;;;6.90;1.03;;;15.40;99.90;;;;;;5117261;28;20165;-80
2021/10/06 11:36:26;;;;;;;2.23;0.90;;;16.70;99.90;;;;;;5116449;28;20243;-80
2021/10/06 11:39:05;;;;;;;2.03;1.10;;;16.40;99.90;;;;;;5120564;28;20193;-82
2021/10/06 11:41:30;;;;;;;4.53;0.97;;;15.70;99.90;;;;;;5121153;28;20167;-80
2021/10/06 11:43:56;;;;;;;2.70;0.80;;;15.10;99.90;;;;;;5119999;28;20193;-80
2021/10/06 11:46:33;;;;;;;2.67;1.00;;;14.60;99.90;;;;;;5120596;28;20169;-80
2021/10/06 11:49:08;;;;;;;4.07;1.80;;;14.20;99.90;;;;;;5119287;28;20196;-80
2021/10/06 11:51:48;;;;;;;1.53;1.17;;;14.00;99.90;;;;;;5119211;28;20198;-80
2021/10/06 11:54:16;;;;;;;1.93;1.00;;;13.60;99.90;;;;;;5119843;28;20217;-80
2021/10/06 11:56:43;;;;;;;1.90;1.20;;;13.40;99.90;;;;;;5120066;28;20177;-80
2021/10/06 11:59:17;;;;;;;2.03;0.80;;;13.50;99.90;;;;;;5119732;28;20203;-80
2021/10/06 12:02:04;;;;;;;2.63;0.87;;;13.60;99.90;;;;;;5121246;28;20190;-80
2021/10/06 12:04:37;;;;;;;2.60;0.97;;;13.60;99.90;;;;;;5120718;28;20187;-80
2021/10/06 12:07:10;;;;;;;2.83;1.00;;;13.60;99.90;;;;;;5119137;28;20171;-80
2021/10/06 12:09:47;;;;;;;2.40;0.87;;;13.50;99.90;;;;;;5119972;28;20672;-80
2021/10/06 12:12:18;;;;;;;6.90;1.60;;;13.50;99.90;;;;;;5119511;28;20261;-80
2021/10/06 12:14:49;;;;;;;2.07;0.80;;;13.60;99.90;;;;;;5120893;28;20257;-81
2021/10/06 12:17:20;;;;;;;6.67;1.03;;;13.50;99.90;;;;;;5119471;28;20177;-80
2021/10/06 12:19:59;;;;;;;1.77;1.00;;;13.10;99.90;;;;;;5120993;28;20191;-80
2021/10/06 12:22:42;;;;;;;2.80;1.40;;;12.90;99.90;;;;;;5120234;28;20678;-80
2021/10/06 12:25:15;;;;;;;1.87;0.70;;;12.70;99.90;;;;;;5119990;28;20656;-80
2021/10/06 12:27:50;;;;;;;2.20;0.90;;;12.70;99.90;;;;;;5119648;28;20167;-79
2021/10/06 12:30:23;;;;;;;2.70;0.73;;;12.40;99.90;;;;;;5120067;28;20171;-80
2021/10/06 12:32:58;;;;;;;2.13;0.93;;;12.50;99.90;;;;;;5120913;28;20176;-80
2021/10/06 12:35:24;;;;;;;3.67;1.17;;;12.80;99.90;;;;;;5120874;28;20208;-80
2021/10/06 12:37:58;;;;;;;5.63;1.33;;;12.90;99.90;;;;;;5119548;28;20302;-80
2021/10/06 12:40:43;;;;;;;1.20;0.90;;;13.00;99.90;;;;;;5119544;28;20179;-80
2021/10/06 12:43:15;;;;;;;4.00;1.20;;;13.10;99.90;;;;;;5118681;28;20203;-80
2021/10/06 12:46:02;;;;;;;3.57;1.37;;;13.40;99.90;;;;;;5118061;28;20262;-83
2021/10/06 12:48:40;;;;;;;2.27;0.90;;;14.60;99.90;;;;;;5117892;28;20203;-81
2021/10/06 12:51:11;;;;;;;2.33;1.00;;;15.90;99.90;;;;;;5122964;28;20507;-80
2021/10/06 12:53:52;;;;;;;1.43;0.70;;;16.60;99.90;;;;;;5123005;28;20172;-80
2021/10/06 12:56:34;;;;;;;2.30;0.83;;;17.10;99.90;;;;;;5124847;28;20161;-80
2021/10/06 12:59:14;;;;;;;2.43;1.10;;;17.30;99.90;;;;;;5123543;28;20207;-81
2021/10/06 13:01:42;;;;;;;3.83;1.20;;;17.70;99.90;;;;;;5119737;28;20208;-80
2021/10/06 13:04:11;;;;;;;2.90;1.00;;;17.40;99.90;;;;;;5120839;28;20213;-81
2021/10/06 13:06:42;;;;;;;3.30;1.20;;;17.60;99.90;;;;;;5124638;28;20168;-81
2021/10/06 13:09:10;;;;;;;3.07;1.20;;;18.20;99.90;;;;;;5123985;28;20202;-81
2021/10/06 13:11:36;;;;;;;2.77;2.17;;;18.30;99.00;;;;;;5124722;28;20172;-81
2021/10/06 13:14:03;;;;;;;3.13;1.50;;;18.20;99.20;;;;;;5124887;28;20176;-81
2021/10/06 13:16:29;;;;;;;4.17;1.10;;;19.20;99.00;;;;;;5126405;28;20181;-81
2021/10/06 13:18:54;;;;;;;3.23;1.20;;;19.80;97.10;;;;;;5126926;28;20226;-81
2021/10/06 13:21:24;;;;;;;1.53;0.93;;;20.00;96.40;;;;;;5129081;28;20172;-81
2021/10/06 13:23:50;;;;;;;2.60;1.00;;;21.00;94.10;;;;;;5123182;28;20203;-80
2021/10/06 13:26:16;;;;;;;4.10;2.57;;;21.50;91.30;;;;;;5123677;28;20194;-81
2021/10/06 13:28:42;;;;;;;2.13;1.10;;;22.20;91.20;;;;;;5123224;28;20232;-81
2021/10/06 13:31:09;;;;;;;2.43;1.00;;;22.10;90.00;;;;;;5122357;28;20179;-81
2021/10/06 13:33:35;;;;;;;4.70;1.20;;;22.30;83.80;;;;;;5123272;28;20199;-80
2021/10/06 13:36:01;;;;;;;2.80;1.23;;;21.90;82.90;;;;;;5122359;28;20259;-80
2021/10/06 13:38:28;;;;;;;2.20;1.00;;;21.20;81.60;;;;;;5122672;28;20398;-81
2021/10/06 13:40:54;;;;;;;1.50;1.03;;;20.80;81.30;;;;;;5123541;28;20516;-81
2021/10/06 13:43:20;;;;;;;4.70;1.20;;;18.90;84.70;;;;;;5121202;28;20253;-81
2021/10/06 13:45:46;;;;;;;4.43;1.10;;;19.20;88.40;;;;;;5124699;28;20260;-81
2021/10/06 13:48:12;;;;;;;1.93;1.03;;;19.90;84.30;;;;;;5123703;28;20631;-81
2021/10/06 13:50:39;;;;;;;2.03;1.03;;;20.10;84.90;;;;;;5122948;28;20183;-81
2021/10/06 13:53:04;;;;;;;1.37;0.90;;;19.90;86.90;;;;;;5122522;28;20181;-81
2021/10/06 13:55:30;;;;;;;2.63;1.40;;;18.50;87.20;;;;;;5123052;28;20172;-81
2021/10/06 13:57:57;;;;;;;4.80;1.30;;;17.20;90.20;;;;;;5123415;28;20692;-81
2021/10/06 14:00:24;;;;;;;3.03;1.17;;;15.80;91.60;;;;;;5121708;28;20176;-80
2021/10/06 14:02:50;;;;;;;3.00;1.03;;;14.80;93.60;;;;;;5121833;28;20257;-80
2021/10/06 14:05:15;;;;;;;4.23;1.50;;;14.10;93.30;;;;;;5121871;28;20635;-81
2021/10/06 14:07:41;;;;;;;1.90;1.27;;;14.80;96.50;;;;;;5121484;28;20240;-80
2021/10/06 14:10:07;;;;;;;2.13;1.10;;;14.80;96.30;;;;;;5122519;27;20508;-81
2021/10/06 14:12:34;;;;;;;2.43;1.00;;;15.00;96.00;;;;;;5121228;28;20178;-80
2021/10/06 14:15:01;;;;;;;3.73;1.10;;;14.90;95.50;;;;;;5121751;28;20165;-80
2021/10/06 14:17:27;;;;;;;2.23;1.40;;;14.80;96.30;;;;;;5122522;28;20174;-80
2021/10/06 14:19:53;;;;;;;1.93;1.23;;;14.60;96.40;;;;;;5121514;28;20251;-81
2021/10/06 14:22:18;;;;;;;2.63;1.20;;;14.40;97.80;;;;;;5120430;28;20582;-80
2021/10/06 14:24:44;;;;;;;2.20;1.10;;;14.00;97.10;;;;;;5118651;28;20200;-80
2021/10/06 14:27:10;;;;;;;1.97;1.00;;;13.70;98.60;;;;;;5117661;28;20175;-80
2021/10/06 14:29:36;;;;;;;3.47;1.00;;;13.80;99.30;;;;;;5117940;28;20652;-80
2021/10/06 14:32:02;;;;;;;1.97;0.87;;;13.80;99.10;;;;;;5119109;28;20176;-80
2021/10/06 14:34:27;;;;;;;2.70;0.80;;;13.40;98.50;;;;;;5120901;28;20187;-80
2021/10/06 14:36:53;;;;;;;2.57;1.07;;;13.20;98.50;;;;;;5122177;28;20182;-80
2021/10/06 14:39:19;;;;;;;7.13;1.77;;;13.10;99.60;;;;;;5123478;28;20591;-80
2021/10/06 14:41:44;;;;;;;2.63;0.83;;;13.10;99.90;;;;;;5121456;28;20636;-80
2021/10/06 14:44:10;;;;;;;2.77;0.80;;;13.20;99.90;;;;;;5121424;28;20203;-81
2021/10/06 14:46:36;;;;;;;1.80;0.80;;;13.20;99.90;;;;;;5121141;28;20195;-80
2021/10/06 14:49:02;;;;;;;2.57;0.97;;;13.00;99.90;;;;;;5122553;28;20203;-80
2021/10/06 14:51:27;;;;;;;2.87;1.00;;;12.80;99.90;;;;;;5120544;28;20178;-80
2021/10/06 14:53:53;;;;;;;1.83;0.73;;;12.70;99.90;;;;;;5121594;28;20185;-80
2021/10/06 14:56:19;;;;;;;3.23;1.20;;;12.50;99.90;;;;;;5121740;28;20183;-80
2021/10/06 14:58:45;;;;;;;3.77;1.13;;;12.30;99.90;;;;;;5122535;28;20665;-80
2021/10/06 15:01:11;;;;;;;1.20;0.70;;;12.20;99.90;;;;;;5120840;28;20180;-82
2021/10/06 15:03:37;;;;;;;1.20;0.90;;;12.20;99.90;;;;;;5122699;28;20203;-80
2021/10/06 15:06:03;;;;;;;1.67;0.63;;;12.10;99.90;;;;;;5123105;28;20185;-80
2021/10/06 15:08:30;;;;;;;3.13;0.63;;;12.00;99.90;;;;;;5120953;28;20230;-80
2021/10/06 15:10:56;;;;;;;2.07;1.00;;;12.10;99.90;;;;;;5122772;28;20174;-80
2021/10/06 15:13:22;;;;;;;1.87;0.70;;;12.10;99.90;;;;;;5121206;28;20190;-79
2021/10/06 15:15:49;;;;;;;2.10;0.90;;;12.00;99.90;;;;;;5126267;28;20186;-80
2021/10/06 15:18:18;;;;;;;1.60;0.70;;;12.10;99.90;;;;;;5125725;28;20191;-80
2021/10/06 15:20:44;;;;;;;3.23;0.77;;;12.20;99.90;;;;;;5124806;28;20278;-79
2021/10/06 15:23:10;;;;;;;1.87;0.80;;;12.00;99.90;;;;;;5124958;28;20220;-80
2021/10/06 15:25:36;;;;;;;1.97;0.97;;;11.80;99.90;;;;;;5123942;28;20176;-80
2021/10/06 15:28:02;;;;;;;1.80;0.70;;;11.70;99.90;;;;;;5123468;28;20603;-81
2021/10/06 15:30:28;;;;;;;3.90;0.73;;;11.70;99.90;;;;;;5122990;28;20176;-81
2021/10/06 15:32:53;;;;;;;1.13;0.67;;;11.60;99.90;;;;;;5122161;28;20179;-80